sensor_id;sensor_type;location;lat;lon;timestamp;P1;durP1;ratioP1;P2;durP2;ratioP2
70150;SDS011;57517;43.562;19.540;2024-03-17T00:00:22;17.30;;;13.13;;
70150;SDS011;57517;43.562;19.540;2024-03-17T00:02:48;19.08;;;14.75;;
70150;SDS011;57517;43.562;19.540;2024-03-17T00:05:15;17.90;;;13.30;;
70150;SDS011;57517;43.562;19.540;2024-03-17T00:07:41;17.45;;;13.70;;
70150;SDS011;57517;43.562;19.540;2024-03-17T00:10:07;20.63;;;15.85;;
70150;SDS011;57517;43.562;19.540;2024-03-17T00:12:34;19.40;;;15.38;;
70150;SDS011;57517;43.562;19.540;2024-03-17T00:14:59;18.85;;;13.80;;
70150;SDS011;57517;43.562;19.540;2024-03-17T00:17:26;18.73;;;14.43;;
70150;SDS011;57517;43.562;19.540;2024-03-17T00:19:51;18.77;;;13.70;;
70150;SDS011;57517;43.562;19.540;2024-03-17T00:22:17;18.02;;;13.05;;
70150;SDS011;57517;43.562;19.540;2024-03-17T00:24:43;17.83;;;14.77;;
70150;SDS011;57517;43.562;19.540;2024-03-17T00:27:10;16.95;;;13.23;;
70150;SDS011;57517;43.562;19.540;2024-03-17T00:29:36;19.30;;;16.17;;
70150;SDS011;57517;43.562;19.540;2024-03-17T00:32:03;19.38;;;15.40;;
70150;SDS011;57517;43.562;19.540;2024-03-17T00:34:29;20.80;;;15.88;;
70150;SDS011;57517;43.562;19.540;2024-03-17T00:36:55;19.33;;;15.32;;
70150;SDS011;57517;43.562;19.540;2024-03-17T00:39:20;18.35;;;15.05;;
70150;SDS011;57517;43.562;19.540;2024-03-17T00:41:47;17.15;;;14.45;;
70150;SDS011;57517;43.562;19.540;2024-03-17T00:44:14;18.63;;;14.90;;
70150;SDS011;57517;43.562;19.540;2024-03-17T00:46:40;20.40;;;14.88;;
70150;SDS011;57517;43.562;19.540;2024-03-17T00:49:07;20.67;;;15.55;;
70150;SDS011;57517;43.562;19.540;2024-03-17T00:51:36;18.58;;;14.73;;
70150;SDS011;57517;43.562;19.540;2024-03-17T00:54:02;20.08;;;13.18;;
70150;SDS011;57517;43.562;19.540;2024-03-17T00:56:28;16.95;;;12.55;;
70150;SDS011;57517;43.562;19.540;2024-03-17T00:58:53;18.00;;;12.52;;
70150;SDS011;57517;43.562;19.540;2024-03-17T01:01:19;13.20;;;10.55;;
70150;SDS011;57517;43.562;19.540;2024-03-17T01:03:45;14.65;;;10.98;;
70150;SDS011;57517;43.562;19.540;2024-03-17T01:06:11;13.32;;;10.57;;
70150;SDS011;57517;43.562;19.540;2024-03-17T01:08:37;14.23;;;11.23;;
70150;SDS011;57517;43.562;19.540;2024-03-17T01:11:03;15.77;;;12.15;;
70150;SDS011;57517;43.562;19.540;2024-03-17T01:13:33;18.05;;;12.98;;
70150;SDS011;57517;43.562;19.540;2024-03-17T01:16:00;15.80;;;12.80;;
70150;SDS011;57517;43.562;19.540;2024-03-17T01:18:26;16.90;;;14.13;;
70150;SDS011;57517;43.562;19.540;2024-03-17T01:20:52;18.63;;;15.43;;
70150;SDS011;57517;43.562;19.540;2024-03-17T01:23:17;19.38;;;14.95;;
70150;SDS011;57517;43.562;19.540;2024-03-17T01:25:43;15.77;;;13.52;;
70150;SDS011;57517;43.562;19.540;2024-03-17T01:28:09;20.17;;;16.13;;
70150;SDS011;57517;43.562;19.540;2024-03-17T01:30:35;19.80;;;15.77;;
70150;SDS011;57517;43.562;19.540;2024-03-17T01:33:01;18.15;;;15.48;;
70150;SDS011;57517;43.562;19.540;2024-03-17T01:35:27;16.10;;;13.50;;
70150;SDS011;57517;43.562;19.540;2024-03-17T01:37:52;16.70;;;12.77;;
70150;SDS011;57517;43.562;19.540;2024-03-17T01:40:19;15.85;;;12.77;;
70150;SDS011;57517;43.562;19.540;2024-03-17T01:42:46;14.65;;;11.60;;
70150;SDS011;57517;43.562;19.540;2024-03-17T01:47:53;16.25;;;11.75;;
70150;SDS011;57517;43.562;19.540;2024-03-17T01:50:20;15.07;;;11.23;;
70150;SDS011;57517;43.562;19.540;2024-03-17T01:52:51;13.57;;;10.40;;
70150;SDS011;57517;43.562;19.540;2024-03-17T01:55:19;15.82;;;10.93;;
70150;SDS011;57517;43.562;19.540;2024-03-17T01:57:47;15.73;;;11.80;;
70150;SDS011;57517;43.562;19.540;2024-03-17T02:00:14;14.25;;;11.93;;
70150;SDS011;57517;43.562;19.540;2024-03-17T02:02:40;17.58;;;12.75;;
70150;SDS011;57517;43.562;19.540;2024-03-17T02:05:06;21.42;;;15.32;;
70150;SDS011;57517;43.562;19.540;2024-03-17T02:07:32;17.85;;;12.63;;
70150;SDS011;57517;43.562;19.540;2024-03-17T02:09:58;18.05;;;13.23;;
70150;SDS011;57517;43.562;19.540;2024-03-17T02:12:24;18.92;;;13.13;;
70150;SDS011;57517;43.562;19.540;2024-03-17T02:14:50;21.13;;;15.85;;
70150;SDS011;57517;43.562;19.540;2024-03-17T02:17:16;20.30;;;13.85;;
70150;SDS011;57517;43.562;19.540;2024-03-17T02:19:42;18.63;;;14.55;;
70150;SDS011;57517;43.562;19.540;2024-03-17T02:22:13;18.40;;;14.25;;
70150;SDS011;57517;43.562;19.540;2024-03-17T02:24:40;18.08;;;13.98;;
70150;SDS011;57517;43.562;19.540;2024-03-17T02:27:06;20.65;;;15.25;;
70150;SDS011;57517;43.562;19.540;2024-03-17T02:29:32;19.63;;;15.02;;
70150;SDS011;57517;43.562;19.540;2024-03-17T02:31:57;21.77;;;16.30;;
70150;SDS011;57517;43.562;19.540;2024-03-17T02:34:23;21.20;;;16.38;;
70150;SDS011;57517;43.562;19.540;2024-03-17T02:36:49;21.60;;;14.52;;
70150;SDS011;57517;43.562;19.540;2024-03-17T02:39:15;21.13;;;16.27;;
70150;SDS011;57517;43.562;19.540;2024-03-17T02:41:59;24.88;;;17.23;;
70150;SDS011;57517;43.562;19.540;2024-03-17T02:44:26;26.13;;;17.95;;
70150;SDS011;57517;43.562;19.540;2024-03-17T02:46:53;22.95;;;17.80;;
70150;SDS011;57517;43.562;19.540;2024-03-17T02:49:18;23.80;;;17.42;;
70150;SDS011;57517;43.562;19.540;2024-03-17T02:51:44;22.67;;;17.35;;
70150;SDS011;57517;43.562;19.540;2024-03-17T02:54:10;19.73;;;16.40;;
70150;SDS011;57517;43.562;19.540;2024-03-17T02:56:36;25.42;;;17.73;;
70150;SDS011;57517;43.562;19.540;2024-03-17T02:59:01;24.02;;;17.30;;
70150;SDS011;57517;43.562;19.540;2024-03-17T03:01:27;22.75;;;16.88;;
70150;SDS011;57517;43.562;19.540;2024-03-17T03:03:53;27.60;;;21.00;;
70150;SDS011;57517;43.562;19.540;2024-03-17T03:06:19;25.65;;;19.17;;
70150;SDS011;57517;43.562;19.540;2024-03-17T03:08:45;25.55;;;18.60;;
70150;SDS011;57517;43.562;19.540;2024-03-17T03:11:14;26.85;;;18.58;;
70150;SDS011;57517;43.562;19.540;2024-03-17T03:13:41;27.42;;;20.20;;
70150;SDS011;57517;43.562;19.540;2024-03-17T03:16:08;25.75;;;20.05;;
70150;SDS011;57517;43.562;19.540;2024-03-17T03:18:39;29.83;;;21.75;;
70150;SDS011;57517;43.562;19.540;2024-03-17T03:21:06;28.67;;;21.42;;
70150;SDS011;57517;43.562;19.540;2024-03-17T03:23:32;31.58;;;22.15;;
70150;SDS011;57517;43.562;19.540;2024-03-17T03:25:59;34.20;;;22.67;;
70150;SDS011;57517;43.562;19.540;2024-03-17T03:28:31;33.60;;;22.80;;
70150;SDS011;57517;43.562;19.540;2024-03-17T03:30:58;29.23;;;20.70;;
70150;SDS011;57517;43.562;19.540;2024-03-17T03:33:24;28.88;;;18.83;;
70150;SDS011;57517;43.562;19.540;2024-03-17T03:35:50;26.20;;;19.02;;
70150;SDS011;57517;43.562;19.540;2024-03-17T03:38:16;27.05;;;18.33;;
70150;SDS011;57517;43.562;19.540;2024-03-17T03:40:43;25.90;;;18.50;;
70150;SDS011;57517;43.562;19.540;2024-03-17T03:43:09;21.30;;;15.32;;
70150;SDS011;57517;43.562;19.540;2024-03-17T03:45:36;20.15;;;14.23;;
70150;SDS011;57517;43.562;19.540;2024-03-17T03:48:02;20.08;;;14.32;;
70150;SDS011;57517;43.562;19.540;2024-03-17T03:50:29;21.67;;;15.35;;
70150;SDS011;57517;43.562;19.540;2024-03-17T03:52:56;20.88;;;13.27;;
70150;SDS011;57517;43.562;19.540;2024-03-17T03:55:21;23.10;;;15.05;;
70150;SDS011;57517;43.562;19.540;2024-03-17T03:57:47;20.98;;;14.45;;
70150;SDS011;57517;43.562;19.540;2024-03-17T04:00:15;22.38;;;15.57;;
70150;SDS011;57517;43.562;19.540;2024-03-17T04:02:46;24.88;;;15.40;;
70150;SDS011;57517;43.562;19.540;2024-03-17T04:05:13;25.55;;;17.38;;
70150;SDS011;57517;43.562;19.540;2024-03-17T04:07:39;23.33;;;15.80;;
70150;SDS011;57517;43.562;19.540;2024-03-17T04:10:08;25.25;;;17.98;;
70150;SDS011;57517;43.562;19.540;2024-03-17T04:12:34;24.15;;;17.23;;
70150;SDS011;57517;43.562;19.540;2024-03-17T04:15:00;33.95;;;21.33;;
70150;SDS011;57517;43.562;19.540;2024-03-17T04:17:27;29.77;;;20.55;;
70150;SDS011;57517;43.562;19.540;2024-03-17T04:19:53;29.63;;;20.75;;
70150;SDS011;57517;43.562;19.540;2024-03-17T04:22:20;30.35;;;20.75;;
70150;SDS011;57517;43.562;19.540;2024-03-17T04:24:47;32.60;;;19.63;;
70150;SDS011;57517;43.562;19.540;2024-03-17T04:27:19;28.50;;;18.05;;
70150;SDS011;57517;43.562;19.540;2024-03-17T04:29:52;25.38;;;17.73;;
70150;SDS011;57517;43.562;19.540;2024-03-17T04:32:21;24.63;;;16.45;;
70150;SDS011;57517;43.562;19.540;2024-03-17T04:34:48;23.15;;;16.15;;
70150;SDS011;57517;43.562;19.540;2024-03-17T04:37:14;22.50;;;15.55;;
70150;SDS011;57517;43.562;19.540;2024-03-17T04:39:41;24.83;;;16.63;;
70150;SDS011;57517;43.562;19.540;2024-03-17T04:42:08;21.77;;;14.48;;
70150;SDS011;57517;43.562;19.540;2024-03-17T04:44:34;25.23;;;15.60;;
70150;SDS011;57517;43.562;19.540;2024-03-17T04:47:00;24.95;;;17.08;;
70150;SDS011;57517;43.562;19.540;2024-03-17T04:49:31;24.63;;;16.95;;
70150;SDS011;57517;43.562;19.540;2024-03-17T04:52:04;23.67;;;15.02;;
70150;SDS011;57517;43.562;19.540;2024-03-17T04:54:31;24.95;;;17.35;;
70150;SDS011;57517;43.562;19.540;2024-03-17T04:56:57;24.60;;;16.35;;
70150;SDS011;57517;43.562;19.540;2024-03-17T04:59:23;23.95;;;16.48;;
70150;SDS011;57517;43.562;19.540;2024-03-17T05:01:49;23.35;;;16.02;;
70150;SDS011;57517;43.562;19.540;2024-03-17T05:04:15;23.60;;;15.93;;
70150;SDS011;57517;43.562;19.540;2024-03-17T05:06:41;24.25;;;15.93;;
70150;SDS011;57517;43.562;19.540;2024-03-17T05:09:11;22.08;;;16.23;;
70150;SDS011;57517;43.562;19.540;2024-03-17T05:11:38;23.58;;;14.98;;
70150;SDS011;57517;43.562;19.540;2024-03-17T05:14:04;19.80;;;12.50;;
70150;SDS011;57517;43.562;19.540;2024-03-17T05:16:30;16.77;;;12.25;;
70150;SDS011;57517;43.562;19.540;2024-03-17T05:18:56;15.07;;;11.05;;
70150;SDS011;57517;43.562;19.540;2024-03-17T05:21:22;16.25;;;11.70;;
70150;SDS011;57517;43.562;19.540;2024-03-17T05:23:49;13.68;;;11.10;;
70150;SDS011;57517;43.562;19.540;2024-03-17T05:26:15;14.32;;;11.00;;
70150;SDS011;57517;43.562;19.540;2024-03-17T05:28:40;13.93;;;10.38;;
70150;SDS011;57517;43.562;19.540;2024-03-17T05:31:06;15.15;;;10.65;;
70150;SDS011;57517;43.562;19.540;2024-03-17T05:33:32;12.20;;;9.23;;
70150;SDS011;57517;43.562;19.540;2024-03-17T05:35:59;12.38;;;9.95;;
70150;SDS011;57517;43.562;19.540;2024-03-17T05:38:28;13.20;;;10.13;;
70150;SDS011;57517;43.562;19.540;2024-03-17T05:40:59;15.77;;;10.55;;
70150;SDS011;57517;43.562;19.540;2024-03-17T05:43:27;13.10;;;9.32;;
70150;SDS011;57517;43.562;19.540;2024-03-17T05:45:54;14.88;;;10.80;;
70150;SDS011;57517;43.562;19.540;2024-03-17T05:48:24;13.55;;;10.10;;
70150;SDS011;57517;43.562;19.540;2024-03-17T05:50:50;15.60;;;11.85;;
70150;SDS011;57517;43.562;19.540;2024-03-17T05:53:16;14.32;;;10.65;;
70150;SDS011;57517;43.562;19.540;2024-03-17T05:55:45;15.68;;;11.07;;
70150;SDS011;57517;43.562;19.540;2024-03-17T05:58:12;13.77;;;10.98;;
70150;SDS011;57517;43.562;19.540;2024-03-17T06:00:38;16.58;;;11.95;;
70150;SDS011;57517;43.562;19.540;2024-03-17T06:03:05;17.13;;;13.23;;
70150;SDS011;57517;43.562;19.540;2024-03-17T06:05:34;16.80;;;12.57;;
70150;SDS011;57517;43.562;19.540;2024-03-17T06:08:02;15.02;;;12.20;;
70150;SDS011;57517;43.562;19.540;2024-03-17T06:10:30;15.93;;;12.55;;
70150;SDS011;57517;43.562;19.540;2024-03-17T06:12:57;15.13;;;10.88;;
70150;SDS011;57517;43.562;19.540;2024-03-17T06:15:23;13.25;;;9.68;;
70150;SDS011;57517;43.562;19.540;2024-03-17T06:17:50;13.73;;;11.13;;
70150;SDS011;57517;43.562;19.540;2024-03-17T06:20:17;11.80;;;9.30;;
70150;SDS011;57517;43.562;19.540;2024-03-17T06:22:43;12.73;;;9.73;;
70150;SDS011;57517;43.562;19.540;2024-03-17T06:25:11;12.43;;;9.60;;
70150;SDS011;57517;43.562;19.540;2024-03-17T06:27:37;12.75;;;9.98;;
70150;SDS011;57517;43.562;19.540;2024-03-17T06:30:03;13.07;;;10.90;;
70150;SDS011;57517;43.562;19.540;2024-03-17T06:32:30;15.75;;;12.07;;
70150;SDS011;57517;43.562;19.540;2024-03-17T06:34:57;14.05;;;10.27;;
70150;SDS011;57517;43.562;19.540;2024-03-17T06:37:23;13.13;;;9.77;;
70150;SDS011;57517;43.562;19.540;2024-03-17T06:39:49;10.88;;;8.82;;
70150;SDS011;57517;43.562;19.540;2024-03-17T06:42:16;10.63;;;8.45;;
70150;SDS011;57517;43.562;19.540;2024-03-17T06:44:41;10.82;;;8.05;;
70150;SDS011;57517;43.562;19.540;2024-03-17T06:47:07;9.55;;;7.95;;
70150;SDS011;57517;43.562;19.540;2024-03-17T06:49:33;13.00;;;9.82;;
70150;SDS011;57517;43.562;19.540;2024-03-17T06:51:59;13.65;;;10.40;;
70150;SDS011;57517;43.562;19.540;2024-03-17T06:54:25;11.77;;;9.95;;
70150;SDS011;57517;43.562;19.540;2024-03-17T06:56:50;16.75;;;12.55;;
70150;SDS011;57517;43.562;19.540;2024-03-17T06:59:17;27.42;;;22.73;;
70150;SDS011;57517;43.562;19.540;2024-03-17T07:01:43;37.15;;;28.23;;
70150;SDS011;57517;43.562;19.540;2024-03-17T07:04:12;42.97;;;33.20;;
70150;SDS011;57517;43.562;19.540;2024-03-17T07:06:38;32.33;;;26.73;;
70150;SDS011;57517;43.562;19.540;2024-03-17T07:09:04;29.00;;;24.20;;
70150;SDS011;57517;43.562;19.540;2024-03-17T07:11:30;29.73;;;26.02;;
70150;SDS011;57517;43.562;19.540;2024-03-17T07:13:56;29.95;;;26.65;;
70150;SDS011;57517;43.562;19.540;2024-03-17T07:16:22;17.67;;;15.88;;
70150;SDS011;57517;43.562;19.540;2024-03-17T07:18:50;24.52;;;19.15;;
70150;SDS011;57517;43.562;19.540;2024-03-17T07:21:18;31.40;;;19.95;;
70150;SDS011;57517;43.562;19.540;2024-03-17T07:23:44;40.50;;;26.77;;
70150;SDS011;57517;43.562;19.540;2024-03-17T07:26:10;30.70;;;21.13;;
70150;SDS011;57517;43.562;19.540;2024-03-17T07:28:36;22.67;;;15.85;;
70150;SDS011;57517;43.562;19.540;2024-03-17T07:31:06;17.23;;;13.45;;
70150;SDS011;57517;43.562;19.540;2024-03-17T07:33:33;25.50;;;19.35;;
70150;SDS011;57517;43.562;19.540;2024-03-17T07:35:59;19.70;;;17.50;;
70150;SDS011;57517;43.562;19.540;2024-03-17T07:38:26;22.50;;;18.35;;
70150;SDS011;57517;43.562;19.540;2024-03-17T07:40:59;19.90;;;17.58;;
70150;SDS011;57517;43.562;19.540;2024-03-17T07:43:27;16.90;;;14.43;;
70150;SDS011;57517;43.562;19.540;2024-03-17T07:48:23;13.15;;;11.20;;
70150;SDS011;57517;43.562;19.540;2024-03-17T07:50:56;15.40;;;13.38;;
70150;SDS011;57517;43.562;19.540;2024-03-17T07:53:33;31.73;;;20.80;;
70150;SDS011;57517;43.562;19.540;2024-03-17T07:56:07;60.25;;;36.85;;
70150;SDS011;57517;43.562;19.540;2024-03-17T07:58:37;42.47;;;29.52;;
70150;SDS011;57517;43.562;19.540;2024-03-17T08:01:08;45.88;;;30.25;;
70150;SDS011;57517;43.562;19.540;2024-03-17T08:03:36;47.17;;;32.17;;
70150;SDS011;57517;43.562;19.540;2024-03-17T08:06:03;32.67;;;25.48;;
70150;SDS011;57517;43.562;19.540;2024-03-17T08:08:33;21.27;;;17.83;;
70150;SDS011;57517;43.562;19.540;2024-03-17T08:11:00;24.98;;;19.35;;
70150;SDS011;57517;43.562;19.540;2024-03-17T08:13:29;19.40;;;15.23;;
70150;SDS011;57517;43.562;19.540;2024-03-17T08:16:01;23.63;;;17.52;;
70150;SDS011;57517;43.562;19.540;2024-03-17T08:18:28;17.90;;;14.52;;
70150;SDS011;57517;43.562;19.540;2024-03-17T08:20:54;16.98;;;12.50;;
70150;SDS011;57517;43.562;19.540;2024-03-17T08:23:21;29.63;;;20.77;;
70150;SDS011;57517;43.562;19.540;2024-03-17T08:25:54;17.52;;;14.38;;
70150;SDS011;57517;43.562;19.540;2024-03-17T08:28:21;17.60;;;14.40;;
70150;SDS011;57517;43.562;19.540;2024-03-17T08:30:51;21.40;;;17.88;;
70150;SDS011;57517;43.562;19.540;2024-03-17T08:33:18;42.72;;;29.83;;
70150;SDS011;57517;43.562;19.540;2024-03-17T08:35:57;42.33;;;26.85;;
70150;SDS011;57517;43.562;19.540;2024-03-17T08:38:24;40.03;;;28.33;;
70150;SDS011;57517;43.562;19.540;2024-03-17T08:40:54;24.65;;;18.33;;
70150;SDS011;57517;43.562;19.540;2024-03-17T08:43:21;22.10;;;16.90;;
70150;SDS011;57517;43.562;19.540;2024-03-17T08:45:57;22.42;;;17.95;;
70150;SDS011;57517;43.562;19.540;2024-03-17T08:48:25;22.42;;;19.25;;
70150;SDS011;57517;43.562;19.540;2024-03-17T08:50:52;19.33;;;15.20;;
70150;SDS011;57517;43.562;19.540;2024-03-17T08:53:18;19.67;;;14.10;;
70150;SDS011;57517;43.562;19.540;2024-03-17T08:55:45;22.08;;;18.48;;
70150;SDS011;57517;43.562;19.540;2024-03-17T08:58:11;32.58;;;25.02;;
70150;SDS011;57517;43.562;19.540;2024-03-17T09:00:37;43.67;;;31.13;;
70150;SDS011;57517;43.562;19.540;2024-03-17T09:03:03;57.40;;;35.72;;
70150;SDS011;57517;43.562;19.540;2024-03-17T09:05:29;59.53;;;37.80;;
70150;SDS011;57517;43.562;19.540;2024-03-17T09:07:58;61.08;;;34.75;;
70150;SDS011;57517;43.562;19.540;2024-03-17T09:10:24;57.55;;;34.45;;
70150;SDS011;57517;43.562;19.540;2024-03-17T09:12:50;38.38;;;27.20;;
70150;SDS011;57517;43.562;19.540;2024-03-17T09:15:15;34.20;;;24.73;;
70150;SDS011;57517;43.562;19.540;2024-03-17T09:17:42;21.92;;;17.13;;
70150;SDS011;57517;43.562;19.540;2024-03-17T09:20:09;39.10;;;25.33;;
70150;SDS011;57517;43.562;19.540;2024-03-17T09:22:38;33.95;;;19.05;;
70150;SDS011;57517;43.562;19.540;2024-03-17T09:25:07;58.35;;;38.25;;
70150;SDS011;57517;43.562;19.540;2024-03-17T09:27:34;17.52;;;13.10;;
70150;SDS011;57517;43.562;19.540;2024-03-17T09:30:04;29.35;;;21.95;;
70150;SDS011;57517;43.562;19.540;2024-03-17T09:32:36;17.15;;;12.38;;
70150;SDS011;57517;43.562;19.540;2024-03-17T09:35:02;11.93;;;10.05;;
70150;SDS011;57517;43.562;19.540;2024-03-17T09:37:30;12.18;;;9.93;;
70150;SDS011;57517;43.562;19.540;2024-03-17T09:39:58;21.27;;;15.65;;
70150;SDS011;57517;43.562;19.540;2024-03-17T09:42:28;21.67;;;12.98;;
70150;SDS011;57517;43.562;19.540;2024-03-17T09:44:54;32.58;;;22.15;;
70150;SDS011;57517;43.562;19.540;2024-03-17T11:41:49;6.95;;;5.90;;
70150;SDS011;57517;43.562;19.540;2024-03-17T11:47:04;5.55;;;4.22;;
70150;SDS011;57517;43.562;19.540;2024-03-17T11:49:31;4.93;;;3.85;;
70150;SDS011;57517;43.562;19.540;2024-03-17T11:52:13;3.25;;;2.90;;
70150;SDS011;57517;43.562;19.540;2024-03-17T11:54:44;4.75;;;3.33;;
70150;SDS011;57517;43.562;19.540;2024-03-17T11:57:11;4.60;;;3.70;;
70150;SDS011;57517;43.562;19.540;2024-03-17T11:59:38;4.70;;;3.42;;
70150;SDS011;57517;43.562;19.540;2024-03-17T12:02:16;4.38;;;2.50;;
70150;SDS011;57517;43.562;19.540;2024-03-17T12:04:47;5.80;;;3.80;;
70150;SDS011;57517;43.562;19.540;2024-03-17T12:07:14;8.35;;;6.72;;
70150;SDS011;57517;43.562;19.540;2024-03-17T12:09:59;8.85;;;6.35;;
70150;SDS011;57517;43.562;19.540;2024-03-17T12:13:17;5.10;;;3.70;;
70150;SDS011;57517;43.562;19.540;2024-03-17T12:15:43;4.85;;;3.58;;
70150;SDS011;57517;43.562;19.540;2024-03-17T12:18:21;6.25;;;4.28;;
70150;SDS011;57517;43.562;19.540;2024-03-17T12:20:48;4.97;;;3.70;;
70150;SDS011;57517;43.562;19.540;2024-03-17T12:23:14;5.70;;;2.70;;
70150;SDS011;57517;43.562;19.540;2024-03-17T12:25:48;3.78;;;2.75;;
70150;SDS011;57517;43.562;19.540;2024-03-17T12:28:15;3.80;;;2.38;;
70150;SDS011;57517;43.562;19.540;2024-03-17T12:30:42;4.05;;;2.38;;
70150;SDS011;57517;43.562;19.540;2024-03-17T12:33:09;5.05;;;2.90;;
70150;SDS011;57517;43.562;19.540;2024-03-17T12:35:36;5.55;;;3.42;;
70150;SDS011;57517;43.562;19.540;2024-03-17T12:38:38;4.35;;;3.40;;
70150;SDS011;57517;43.562;19.540;2024-03-17T12:41:01;8.45;;;6.65;;
70150;SDS011;57517;43.562;19.540;2024-03-17T12:43:32;27.98;;;19.52;;
70150;SDS011;57517;43.562;19.540;2024-03-17T12:45:57;39.88;;;29.95;;
70150;SDS011;57517;43.562;19.540;2024-03-17T12:48:23;27.42;;;19.50;;
70150;SDS011;57517;43.562;19.540;2024-03-17T12:50:49;38.30;;;28.15;;
70150;SDS011;57517;43.562;19.540;2024-03-17T12:53:16;16.60;;;14.77;;
70150;SDS011;57517;43.562;19.540;2024-03-17T12:55:42;15.07;;;12.27;;
70150;SDS011;57517;43.562;19.540;2024-03-17T12:58:35;15.73;;;12.57;;
70150;SDS011;57517;43.562;19.540;2024-03-17T13:01:20;17.17;;;12.60;;
70150;SDS011;57517;43.562;19.540;2024-03-17T13:03:45;23.33;;;15.98;;
70150;SDS011;57517;43.562;19.540;2024-03-17T13:06:20;22.67;;;17.23;;
70150;SDS011;57517;43.562;19.540;2024-03-17T13:08:50;25.48;;;19.63;;
70150;SDS011;57517;43.562;19.540;2024-03-17T13:11:16;40.78;;;27.70;;
70150;SDS011;57517;43.562;19.540;2024-03-17T13:16:55;25.88;;;17.48;;
70150;SDS011;57517;43.562;19.540;2024-03-17T13:19:21;20.88;;;14.05;;
70150;SDS011;57517;43.562;19.540;2024-03-17T13:21:47;17.75;;;14.75;;
70150;SDS011;57517;43.562;19.540;2024-03-17T13:24:13;22.40;;;18.67;;
70150;SDS011;57517;43.562;19.540;2024-03-17T13:26:39;18.98;;;13.23;;
70150;SDS011;57517;43.562;19.540;2024-03-17T13:29:08;70.88;;;44.38;;
70150;SDS011;57517;43.562;19.540;2024-03-17T13:31:34;21.67;;;15.90;;
70150;SDS011;57517;43.562;19.540;2024-03-17T13:34:03;17.40;;;14.57;;
70150;SDS011;57517;43.562;19.540;2024-03-17T13:36:29;18.05;;;16.15;;
70150;SDS011;57517;43.562;19.540;2024-03-17T13:38:56;12.43;;;10.25;;
70150;SDS011;57517;43.562;19.540;2024-03-17T13:41:22;14.27;;;11.77;;
70150;SDS011;57517;43.562;19.540;2024-03-17T13:43:49;14.43;;;11.45;;
70150;SDS011;57517;43.562;19.540;2024-03-17T13:46:16;10.00;;;8.63;;
70150;SDS011;57517;43.562;19.540;2024-03-17T13:48:42;17.38;;;14.57;;
70150;SDS011;57517;43.562;19.540;2024-03-17T13:51:08;14.57;;;11.30;;
70150;SDS011;57517;43.562;19.540;2024-03-17T13:53:34;10.13;;;8.52;;
70150;SDS011;57517;43.562;19.540;2024-03-17T13:56:00;9.80;;;8.48;;
70150;SDS011;57517;43.562;19.540;2024-03-17T13:58:26;8.73;;;7.82;;
70150;SDS011;57517;43.562;19.540;2024-03-17T14:00:51;7.47;;;6.07;;
70150;SDS011;57517;43.562;19.540;2024-03-17T14:03:18;6.53;;;5.22;;
70150;SDS011;57517;43.562;19.540;2024-03-17T14:05:43;6.97;;;5.70;;
70150;SDS011;57517;43.562;19.540;2024-03-17T14:08:09;6.60;;;5.28;;
70150;SDS011;57517;43.562;19.540;2024-03-17T14:10:35;7.05;;;5.63;;
70150;SDS011;57517;43.562;19.540;2024-03-17T14:13:01;6.97;;;5.45;;
70150;SDS011;57517;43.562;19.540;2024-03-17T14:15:28;6.15;;;4.82;;
70150;SDS011;57517;43.562;19.540;2024-03-17T14:18:10;6.60;;;4.90;;
70150;SDS011;57517;43.562;19.540;2024-03-17T14:24:52;8.80;;;5.65;;
70150;SDS011;57517;43.562;19.540;2024-03-17T14:27:18;6.90;;;5.35;;
70150;SDS011;57517;43.562;19.540;2024-03-17T14:29:45;7.00;;;5.97;;
70150;SDS011;57517;43.562;19.540;2024-03-17T14:32:11;6.40;;;5.03;;
70150;SDS011;57517;43.562;19.540;2024-03-17T14:34:39;4.40;;;3.78;;
70150;SDS011;57517;43.562;19.540;2024-03-17T14:37:04;5.03;;;3.38;;
70150;SDS011;57517;43.562;19.540;2024-03-17T14:39:30;4.82;;;3.70;;
70150;SDS011;57517;43.562;19.540;2024-03-17T14:41:57;6.53;;;4.20;;
70150;SDS011;57517;43.562;19.540;2024-03-17T14:44:22;4.60;;;3.83;;
70150;SDS011;57517;43.562;19.540;2024-03-17T14:46:49;5.85;;;4.50;;
70150;SDS011;57517;43.562;19.540;2024-03-17T14:49:19;7.18;;;4.80;;
70150;SDS011;57517;43.562;19.540;2024-03-17T14:51:45;8.20;;;5.35;;
70150;SDS011;57517;43.562;19.540;2024-03-17T14:54:11;10.70;;;7.18;;
70150;SDS011;57517;43.562;19.540;2024-03-17T14:56:42;9.93;;;7.15;;
70150;SDS011;57517;43.562;19.540;2024-03-17T14:59:12;9.63;;;6.70;;
70150;SDS011;57517;43.562;19.540;2024-03-17T15:01:38;14.82;;;10.57;;
70150;SDS011;57517;43.562;19.540;2024-03-17T15:04:04;33.67;;;21.92;;
70150;SDS011;57517;43.562;19.540;2024-03-17T15:06:29;30.50;;;21.30;;
70150;SDS011;57517;43.562;19.540;2024-03-17T15:08:56;11.70;;;8.00;;
70150;SDS011;57517;43.562;19.540;2024-03-17T15:11:21;8.98;;;6.13;;
70150;SDS011;57517;43.562;19.540;2024-03-17T15:13:47;8.18;;;6.07;;
70150;SDS011;57517;43.562;19.540;2024-03-17T15:16:13;7.85;;;5.78;;
70150;SDS011;57517;43.562;19.540;2024-03-17T15:18:40;9.55;;;6.75;;
70150;SDS011;57517;43.562;19.540;2024-03-17T15:21:07;6.95;;;5.00;;
70150;SDS011;57517;43.562;19.540;2024-03-17T15:23:34;8.45;;;6.90;;
70150;SDS011;57517;43.562;19.540;2024-03-17T15:26:00;13.73;;;10.70;;
70150;SDS011;57517;43.562;19.540;2024-03-17T15:28:38;18.10;;;13.40;;
70150;SDS011;57517;43.562;19.540;2024-03-17T15:31:05;18.50;;;13.88;;
70150;SDS011;57517;43.562;19.540;2024-03-17T15:33:32;13.85;;;11.55;;
70150;SDS011;57517;43.562;19.540;2024-03-17T15:36:08;19.17;;;14.98;;
70150;SDS011;57517;43.562;19.540;2024-03-17T15:38:34;47.25;;;33.97;;
70150;SDS011;57517;43.562;19.540;2024-03-17T15:43:37;37.63;;;30.40;;
70150;SDS011;57517;43.562;19.540;2024-03-17T15:48:40;52.75;;;41.42;;
70150;SDS011;57517;43.562;19.540;2024-03-17T15:51:06;49.13;;;37.72;;
70150;SDS011;57517;43.562;19.540;2024-03-17T15:53:32;42.80;;;34.92;;
70150;SDS011;57517;43.562;19.540;2024-03-17T15:55:59;52.03;;;43.55;;
70150;SDS011;57517;43.562;19.540;2024-03-17T15:58:26;49.42;;;42.08;;
70150;SDS011;57517;43.562;19.540;2024-03-17T16:00:54;41.45;;;35.80;;
70150;SDS011;57517;43.562;19.540;2024-03-17T16:03:22;34.03;;;29.52;;
70150;SDS011;57517;43.562;19.540;2024-03-17T16:05:59;37.03;;;32.35;;
70150;SDS011;57517;43.562;19.540;2024-03-17T16:08:33;35.30;;;30.60;;
70150;SDS011;57517;43.562;19.540;2024-03-17T16:11:07;24.52;;;21.90;;
70150;SDS011;57517;43.562;19.540;2024-03-17T16:13:38;24.70;;;21.70;;
70150;SDS011;57517;43.562;19.540;2024-03-17T16:16:10;22.67;;;20.20;;
70150;SDS011;57517;43.562;19.540;2024-03-17T16:18:40;26.42;;;22.88;;
70150;SDS011;57517;43.562;19.540;2024-03-17T16:21:09;33.38;;;26.60;;
70150;SDS011;57517;43.562;19.540;2024-03-17T16:23:44;51.05;;;35.75;;
70150;SDS011;57517;43.562;19.540;2024-03-17T16:26:13;51.47;;;38.65;;
70150;SDS011;57517;43.562;19.540;2024-03-17T16:28:40;54.35;;;42.83;;
70150;SDS011;57517;43.562;19.540;2024-03-17T16:31:06;49.47;;;42.60;;